createdAt,value
2022-09-23T00:02:54.620Z,1.70
2022-09-23T00:13:38.831Z,1.60
2022-09-23T00:31:50.524Z,2.03
2022-09-23T00:42:56.816Z,1.80
2022-09-23T00:48:52.093Z,2.00
2022-09-23T01:05:17.187Z,2.10
2022-09-23T01:10:56.220Z,2.13
2022-09-23T01:27:43.914Z,2.20
2022-09-23T01:38:09.128Z,2.20
2022-09-23T02:57:21.000Z,2.50
2022-09-23T03:02:57.295Z,2.30
2022-09-23T03:14:05.328Z,2.43
2022-09-23T03:19:27.961Z,2.20
2022-09-23T03:36:57.792Z,2.60
2022-09-23T03:48:18.569Z,2.10
2022-09-23T04:28:28.899Z,2.40
2022-09-23T05:01:35.597Z,2.93
2022-09-23T07:35:46.249Z,2.57
2022-09-23T07:40:49.973Z,2.20
2022-09-23T07:45:54.005Z,2.17
2022-09-23T07:50:59.676Z,1.90
2022-09-23T07:56:04.775Z,2.03
2022-09-23T08:01:10.680Z,1.70
2022-09-23T08:06:15.892Z,1.90
2022-09-23T08:11:19.497Z,1.70
2022-09-23T08:16:23.352Z,1.77
2022-09-23T08:21:28.463Z,1.70
2022-09-23T08:26:34.576Z,1.70
2022-09-23T08:31:55.778Z,1.77
2022-09-23T08:37:04.958Z,1.83
2022-09-23T08:42:32.230Z,2.17
2022-09-23T08:47:57.619Z,1.87
2022-09-23T09:00:12.155Z,1.50
2022-09-23T09:05:54.138Z,1.67
2022-09-23T09:11:47.918Z,1.47
2022-09-23T09:17:15.214Z,1.80
2022-09-23T09:22:43.237Z,1.60
2022-09-23T09:28:50.818Z,1.50
2022-09-23T09:34:31.732Z,1.60
2022-09-23T09:46:25.542Z,1.50
2022-09-23T09:57:01.649Z,1.20
2022-09-23T10:02:45.611Z,1.50
2022-09-23T10:13:44.260Z,1.40
2022-09-23T10:19:24.783Z,1.60
2022-09-23T10:25:27.410Z,1.60
2022-09-23T10:43:31.125Z,1.50
2022-09-23T10:49:22.518Z,1.30
2022-09-23T10:55:29.887Z,1.17
2022-09-23T11:01:28.358Z,1.30
2022-09-23T11:13:34.392Z,1.00
2022-09-23T11:32:41.216Z,1.03
2022-09-23T11:43:47.121Z,1.30
2022-09-23T11:49:17.679Z,1.20
2022-09-23T11:54:53.587Z,1.50
2022-09-23T12:00:04.719Z,1.50
2022-09-23T12:05:41.919Z,1.40
2022-09-23T12:23:19.853Z,1.60
2022-09-23T12:34:44.485Z,1.57
2022-09-23T12:39:50.961Z,1.43
2022-09-23T12:45:53.425Z,1.60
2022-09-23T12:51:43.798Z,1.40
2022-09-23T12:58:16.641Z,1.20
2022-09-23T13:23:22.192Z,1.63
2022-09-23T13:30:52.614Z,1.40
2022-09-23T13:54:16.581Z,1.50
2022-09-23T14:12:58.991Z,1.50
2022-09-23T14:30:31.374Z,1.80
2022-09-23T14:35:56.807Z,1.80
2022-09-23T14:41:33.993Z,1.83
2022-09-23T15:04:47.666Z,1.67
2022-09-23T15:10:05.367Z,1.90
2022-09-23T15:15:30.109Z,1.80
2022-09-23T15:21:00.291Z,1.60
2022-09-23T15:27:17.192Z,2.00
2022-09-23T15:51:38.925Z,2.60
2022-09-23T15:56:50.727Z,2.00
2022-09-23T16:02:38.135Z,2.53
2022-09-23T16:07:56.364Z,2.40
2022-09-23T16:13:12.479Z,2.07
2022-09-23T16:19:25.364Z,2.10
2022-09-23T16:25:02.316Z,2.20
2022-09-23T17:04:07.270Z,2.00
2022-09-23T18:02:59.720Z,3.30
2022-09-23T18:20:33.931Z,3.97
2022-09-23T18:38:06.686Z,3.50
2022-09-23T18:48:38.764Z,4.50
2022-09-23T19:11:33.829Z,3.70
2022-09-23T19:17:46.706Z,2.80
2022-09-23T19:23:11.903Z,3.10
2022-09-23T19:33:57.809Z,2.90
2022-09-23T19:45:11.463Z,2.20
2022-09-23T19:50:36.077Z,2.13
2022-09-23T19:56:09.111Z,2.50
2022-09-23T20:01:25.915Z,2.37
2022-09-23T20:51:18.292Z,2.37
2022-09-23T20:56:28.991Z,2.23
2022-09-23T21:01:39.874Z,2.37
2022-09-23T21:07:05.412Z,2.30
2022-09-23T21:12:31.683Z,2.80
2022-09-23T21:17:42.557Z,2.10
2022-09-23T21:22:51.436Z,2.43
2022-09-23T21:27:59.592Z,2.90
2022-09-23T21:33:07.506Z,3.00
2022-09-23T21:38:13.873Z,2.57
2022-09-23T21:43:20.678Z,2.40
2022-09-23T21:48:24.676Z,2.23
2022-09-23T21:53:36.724Z,2.50
2022-09-23T21:58:54.138Z,2.60
2022-09-23T22:04:05.676Z,3.07
2022-09-23T22:09:16.312Z,2.70
2022-09-23T22:14:33.127Z,3.30
2022-09-23T22:19:44.369Z,3.10
2022-09-23T22:24:52.489Z,3.13
2022-09-23T22:35:38.610Z,2.67
2022-09-23T22:40:56.871Z,3.80
2022-09-23T22:46:12.653Z,3.57
2022-09-23T22:51:16.577Z,3.70
2022-09-23T22:56:22.312Z,3.00
2022-09-23T23:01:26.511Z,3.77
2022-09-23T23:06:35.341Z,3.40
2022-09-23T23:11:42.781Z,3.23
2022-09-23T23:16:52.122Z,3.27
2022-09-23T23:21:59.055Z,2.70
2022-09-23T23:27:04.606Z,3.27
2022-09-23T23:32:14.409Z,3.10
2022-09-23T23:37:25.636Z,3.60
2022-09-23T23:42:31.924Z,4.10
2022-09-23T23:47:40.857Z,4.00
2022-09-23T23:52:46.046Z,3.63
2022-09-23T23:57:53.238Z,3.50
